Time;durP1;ratioP1;P1;durP2;ratioP2;P2;SDS_P1;SDS_P2;PMS_P1;PMS_P2;Temp;Humidity;BMP_temperature;BMP_pressure;BME280_temperature;BME280_humidity;BME280_pressure;Samples;Min_cycle;Max_cycle;Signal;HPM_P1;HPM_P2
2021/08/31 00:02:22;;;;;;;6.70;4.70;;;;;;;10.92;94.71;96199.00;114050;1203;28832;-86
2021/08/31 00:04:53;;;;;;;4.60;3.60;;;;;;;10.94;94.55;96201.23;114238;1201;30766;-86
2021/08/31 00:07:24;;;;;;;6.10;4.00;;;;;;;11.01;94.44;96194.09;114115;1201;27989;-86
2021/08/31 00:09:55;;;;;;;5.90;4.50;;;;;;;11.09;94.33;96197.91;114219;1200;29290;-86
2021/08/31 00:12:26;;;;;;;5.70;4.10;;;;;;;11.10;94.26;96191.96;114136;1202;46119;-87
2021/08/31 00:14:57;;;;;;;5.30;4.10;;;;;;;11.08;94.16;96189.17;114173;1206;28947;-85
2021/08/31 00:17:28;;;;;;;5.40;4.30;;;;;;;11.09;94.18;96186.40;114202;1200;30592;-86
2021/08/31 00:19:59;;;;;;;6.90;4.60;;;;;;;11.10;94.07;96183.85;114160;1201;26943;-85
2021/08/31 00:22:30;;;;;;;6.60;4.30;;;;;;;11.10;94.09;96182.98;114140;1200;27858;-85
2021/08/31 00:25:01;;;;;;;5.30;4.10;;;;;;;11.12;94.11;96183.93;114279;1200;32745;-85
2021/08/31 00:27:32;;;;;;;5.10;4.40;;;;;;;11.13;94.08;96177.93;114241;1200;26823;-85
2021/08/31 00:30:03;;;;;;;5.80;4.70;;;;;;;11.12;94.00;96182.96;114289;1200;27892;-85
2021/08/31 00:32:34;;;;;;;8.60;4.60;;;;;;;11.12;93.97;96181.22;114225;1200;29442;-84
2021/08/31 00:35:05;;;;;;;7.00;5.40;;;;;;;11.11;93.96;96177.81;114071;1203;29870;-86
2021/08/31 00:37:36;;;;;;;5.50;4.60;;;;;;;11.11;93.96;96176.75;114273;1207;31675;-86
2021/08/31 00:40:10;;;;;;;5.50;4.40;;;;;;;11.12;93.93;96178.99;114130;1200;35172;-85
2021/08/31 00:42:41;;;;;;;6.00;4.70;;;;;;;11.12;93.92;96176.45;114187;1200;80663;-85
2021/08/31 00:45:13;;;;;;;6.40;4.30;;;;;;;11.14;93.95;96175.10;114213;1200;26717;-85
2021/08/31 00:47:44;;;;;;;7.10;4.40;;;;;;;11.15;94.05;96176.39;114225;1200;29646;-85
2021/08/31 00:50:17;;;;;;;5.40;4.20;;;;;;;11.16;94.11;96172.88;114285;1200;26418;-86
2021/08/31 00:52:48;;;;;;;4.80;3.40;;;;;;;11.18;94.05;96175.12;114249;1200;29117;-85
2021/08/31 00:55:19;;;;;;;6.30;4.10;;;;;;;11.21;93.92;96171.44;114218;1200;28872;-86
2021/08/31 00:57:50;;;;;;;6.10;4.30;;;;;;;11.24;93.88;96172.40;114204;1200;28617;-86
2021/08/31 01:00:21;;;;;;;5.30;4.00;;;;;;;11.26;93.80;96168.02;114060;1203;26714;-86
2021/08/31 01:02:53;;;;;;;4.10;3.50;;;;;;;11.30;93.71;96167.84;114032;1202;39097;-85
2021/08/31 01:05:24;;;;;;;4.50;3.80;;;;;;;11.37;93.52;96173.04;114139;1201;39853;-86
2021/08/31 01:07:55;;;;;;;6.30;3.80;;;;;;;11.42;93.33;96174.12;114273;1204;25863;-85
2021/08/31 01:10:27;;;;;;;5.40;3.90;;;;;;;11.46;93.13;96173.98;114231;1200;26756;-86
2021/08/31 01:12:58;;;;;;;5.40;4.10;;;;;;;11.50;92.95;96174.02;114236;1193;27684;-84
2021/08/31 01:15:30;;;;;;;6.20;4.60;;;;;;;11.50;92.75;96179.66;114215;1208;27954;-86
2021/08/31 01:18:19;;;;;;;4.60;3.90;;;;;;;11.51;92.67;96173.27;114203;1203;33430;-85
2021/08/31 01:20:51;;;;;;;6.80;4.10;;;;;;;11.52;92.45;96181.93;114137;1203;26740;-85
2021/08/31 01:23:23;;;;;;;5.80;4.40;;;;;;;11.51;92.38;96171.42;114228;1202;27732;-85
2021/08/31 01:25:55;;;;;;;5.60;4.60;;;;;;;11.50;92.36;96170.55;114121;1200;34340;-86
2021/08/31 01:28:28;;;;;;;7.40;5.10;;;;;;;11.49;92.12;96166.69;114253;1207;28038;-85
2021/08/31 01:31:01;;;;;;;5.60;4.60;;;;;;;11.49;92.04;96171.85;114183;1203;27855;-84
2021/08/31 01:33:33;;;;;;;5.10;4.50;;;;;;;11.47;92.13;96170.23;114289;1202;30552;-85
2021/08/31 01:36:18;;;;;;;5.30;4.00;;;;;;;11.46;92.16;96176.84;114264;1200;27248;-84
2021/08/31 01:38:50;;;;;;;5.80;4.30;;;;;;;11.45;92.20;96174.31;114124;1203;32055;-85
2021/08/31 01:41:22;;;;;;;6.30;5.00;;;;;;;11.46;92.28;96171.31;114201;1200;30064;-85
2021/08/31 01:43:53;;;;;;;7.00;5.00;;;;;;;11.45;92.19;96170.44;114155;1201;31354;-86
2021/08/31 01:46:24;;;;;;;6.40;4.80;;;;;;;11.46;92.17;96171.96;114129;1201;27875;-86
2021/08/31 01:48:55;;;;;;;6.10;4.70;;;;;;;11.46;92.24;96171.27;114235;1194;27725;-87
2021/08/31 01:51:26;;;;;;;5.50;4.50;;;;;;;11.47;92.23;96169.83;114252;1200;26902;-86
2021/08/31 01:53:57;;;;;;;6.20;4.80;;;;;;;11.47;92.28;96161.96;114164;1203;27742;-85
2021/08/31 01:56:28;;;;;;;6.00;4.60;;;;;;;11.47;92.24;96163.98;114117;1202;38407;-86
2021/08/31 01:58:59;;;;;;;7.20;4.50;;;;;;;11.46;92.29;96163.73;114281;1200;28296;-86
2021/08/31 02:01:30;;;;;;;7.10;4.80;;;;;;;11.48;92.18;96162.84;114320;1200;26311;-85
2021/08/31 02:04:01;;;;;;;6.50;4.70;;;;;;;11.49;92.18;96161.28;114223;1203;25871;-85
2021/08/31 02:06:32;;;;;;;6.40;4.70;;;;;;;11.49;92.16;96161.33;114339;1203;28746;-85
2021/08/31 02:09:03;;;;;;;6.40;5.20;;;;;;;11.50;92.20;96156.17;114269;1201;27901;-85
2021/08/31 02:11:34;;;;;;;5.60;5.00;;;;;;;11.49;92.16;96158.36;114222;1200;25986;-85
2021/08/31 02:14:05;;;;;;;6.30;5.00;;;;;;;11.49;92.20;96160.17;114124;1201;28663;-85
2021/08/31 02:16:38;;;;;;;6.70;4.80;;;;;;;11.49;92.28;96159.01;114230;1200;27587;-85
2021/08/31 02:19:09;;;;;;;7.10;5.10;;;;;;;11.47;92.36;96160.05;114223;1200;28041;-86
2021/08/31 02:21:40;;;;;;;6.30;4.70;;;;;;;11.46;92.53;96155.52;114270;1200;25815;-85
2021/08/31 02:24:11;;;;;;;6.80;5.10;;;;;;;11.43;92.64;96155.45;114252;1200;27495;-86
2021/08/31 02:26:42;;;;;;;5.50;4.90;;;;;;;11.41;92.78;96156.56;114161;1202;28923;-86
2021/08/31 02:29:13;;;;;;;8.20;5.10;;;;;;;11.40;92.93;96152.95;114128;1202;25978;-86
2021/08/31 02:31:44;;;;;;;5.20;4.70;;;;;;;11.38;93.13;96151.13;114242;1200;26828;-86
2021/08/31 02:34:15;;;;;;;5.00;4.50;;;;;;;11.36;93.28;96152.51;114140;1202;28643;-85
2021/08/31 02:36:46;;;;;;;7.60;5.30;;;;;;;11.35;93.48;96148.48;114278;1200;27584;-84
2021/08/31 02:39:17;;;;;;;8.10;5.10;;;;;;;11.35;93.50;96145.03;114198;1202;29475;-86
2021/08/31 02:41:48;;;;;;;6.00;4.90;;;;;;;11.35;93.71;96144.56;114247;1203;25033;-85
2021/08/31 02:44:19;;;;;;;6.80;4.80;;;;;;;11.34;93.77;96141.97;114274;1201;27397;-85
2021/08/31 02:46:50;;;;;;;6.00;4.80;;;;;;;11.35;93.89;96142.77;114292;1200;30936;-85
2021/08/31 02:49:21;;;;;;;8.20;5.40;;;;;;;11.34;94.16;96137.41;114220;1200;29152;-85
2021/08/31 02:51:52;;;;;;;6.60;5.30;;;;;;;11.34;94.31;96140.91;114199;1201;42771;-85
2021/08/31 02:54:23;;;;;;;7.10;5.40;;;;;;;11.35;94.28;96130.98;114223;1201;29462;-85
2021/08/31 02:56:54;;;;;;;7.90;5.90;;;;;;;11.36;94.53;96129.78;114259;1203;28259;-86
2021/08/31 02:59:25;;;;;;;5.70;4.90;;;;;;;11.36;94.64;96127.19;114211;1201;41195;-85
2021/08/31 03:02:08;;;;;;;7.30;5.20;;;;;;;11.38;94.82;96124.80;114177;1201;28648;-85
2021/08/31 03:04:41;;;;;;;6.40;5.30;;;;;;;11.42;94.96;96131.90;114214;1202;26996;-86
2021/08/31 03:07:14;;;;;;;7.60;5.90;;;;;;;11.44;95.03;96129.54;114179;1200;35555;-85
2021/08/31 03:09:45;;;;;;;6.90;5.10;;;;;;;11.43;95.19;96127.85;114176;1201;28236;-85
2021/08/31 03:12:16;;;;;;;6.10;5.30;;;;;;;11.44;95.30;96122.15;114144;1201;27177;-86
2021/08/31 03:14:47;;;;;;;8.60;6.70;;;;;;;11.46;95.48;96124.88;114167;1198;31006;-85
2021/08/31 03:17:18;;;;;;;6.80;5.70;;;;;;;11.44;95.61;96125.17;114184;1202;30381;-86
2021/08/31 03:19:48;;;;;;;7.50;6.50;;;;;;;11.43;95.57;96125.79;114154;1208;28434;-86
2021/08/31 03:22:19;;;;;;;9.30;6.40;;;;;;;11.44;95.83;96122.27;114207;1201;28305;-86
2021/08/31 03:24:50;;;;;;;8.80;6.10;;;;;;;11.45;95.96;96126.40;114116;1201;27127;-86
2021/08/31 03:27:21;;;;;;;8.30;6.00;;;;;;;11.44;96.12;96117.38;114152;1202;25820;-86
2021/08/31 03:29:52;;;;;;;8.50;6.30;;;;;;;11.44;96.27;96122.27;114185;1201;28375;-86
2021/08/31 03:32:23;;;;;;;6.90;5.80;;;;;;;11.44;96.41;96125.34;114166;1203;28477;-85
2021/08/31 03:34:54;;;;;;;8.40;6.90;;;;;;;11.43;96.64;96121.27;114149;1201;27990;-86
2021/08/31 03:37:25;;;;;;;7.10;5.90;;;;;;;11.41;96.89;96121.69;114174;1201;26331;-86
2021/08/31 03:39:55;;;;;;;11.70;6.80;;;;;;;11.41;96.86;96119.89;114166;1202;28272;-85
2021/08/31 03:42:26;;;;;;;8.00;6.70;;;;;;;11.39;97.05;96119.64;114167;1204;28360;-86
2021/08/31 03:44:57;;;;;;;8.40;6.90;;;;;;;11.38;97.19;96120.40;114209;1202;26497;-85
2021/08/31 03:47:28;;;;;;;11.10;7.60;;;;;;;11.35;97.23;96118.23;114182;1202;36656;-85
2021/08/31 03:49:59;;;;;;;8.10;6.70;;;;;;;11.34;97.19;96118.09;114179;1200;29309;-85
2021/08/31 03:52:30;;;;;;;7.50;6.50;;;;;;;11.32;97.31;96117.34;114201;1202;26234;-86
2021/08/31 03:55:02;;;;;;;9.10;7.30;;;;;;;11.29;97.25;96121.38;114199;1202;25938;-86
2021/08/31 03:57:33;;;;;;;9.80;6.10;;;;;;;11.27;97.52;96116.73;114235;1202;25732;-86
2021/08/31 04:00:04;;;;;;;9.10;7.10;;;;;;;11.27;97.72;96115.96;114239;1200;28387;-86
2021/08/31 04:02:37;;;;;;;8.40;6.70;;;;;;;11.26;97.74;96112.35;114151;1201;28089;-85
2021/08/31 04:05:09;;;;;;;7.70;6.60;;;;;;;11.26;97.69;96115.69;114155;1204;31285;-86
2021/08/31 04:07:40;;;;;;;8.40;6.10;;;;;;;11.26;97.76;96121.85;114213;1201;28001;-85
2021/08/31 04:10:13;;;;;;;8.80;6.00;;;;;;;11.28;97.98;96120.71;114139;1203;28062;-85
2021/08/31 04:12:44;;;;;;;8.70;6.90;;;;;;;11.29;98.11;96121.54;114209;1200;28181;-86
2021/08/31 04:15:15;;;;;;;8.40;6.50;;;;;;;11.30;98.02;96117.49;114189;1202;29440;-85
2021/08/31 04:17:46;;;;;;;7.50;6.20;;;;;;;11.31;97.91;96119.59;114208;1203;25463;-85
2021/08/31 04:20:18;;;;;;;8.50;6.30;;;;;;;11.31;97.86;96119.38;114239;1201;29792;-85
2021/08/31 04:22:48;;;;;;;7.60;5.60;;;;;;;11.30;98.04;96114.09;114206;1201;27822;-86
2021/08/31 04:25:20;;;;;;;8.10;6.10;;;;;;;11.31;98.07;96103.89;114219;1201;25982;-85
2021/08/31 04:27:51;;;;;;;8.60;5.80;;;;;;;11.33;98.07;96103.43;114163;1202;28009;-86
2021/08/31 04:30:21;;;;;;;7.10;6.00;;;;;;;11.32;98.32;96101.00;114153;1196;25856;-85
2021/08/31 04:32:52;;;;;;;7.90;5.60;;;;;;;11.33;98.39;96096.26;114108;1202;40597;-85
2021/08/31 04:35:23;;;;;;;9.70;6.50;;;;;;;11.34;98.34;96091.55;114261;1201;26935;-86
2021/08/31 04:37:54;;;;;;;7.90;6.30;;;;;;;11.34;98.37;96093.05;114141;1202;27572;-85
2021/08/31 04:40:25;;;;;;;6.70;5.30;;;;;;;11.35;98.48;96089.73;114155;1203;26616;-86
2021/08/31 04:42:56;;;;;;;6.50;5.50;;;;;;;11.36;98.49;96094.88;114218;1207;26022;-86
2021/08/31 04:45:27;;;;;;;7.50;5.90;;;;;;;11.39;98.51;96094.85;114129;1203;31724;-85
2021/08/31 04:47:58;;;;;;;5.90;5.20;;;;;;;11.43;98.64;96093.62;114140;1201;28609;-84
2021/08/31 04:50:29;;;;;;;7.30;5.40;;;;;;;11.45;98.63;96087.46;114156;1203;26299;-84
2021/08/31 04:53:00;;;;;;;5.90;5.30;;;;;;;11.48;98.65;96087.99;114104;1202;30430;-85
2021/08/31 04:55:31;;;;;;;5.60;5.00;;;;;;;11.50;98.51;96087.79;114257;1202;27660;-85
2021/08/31 04:58:02;;;;;;;6.20;4.70;;;;;;;11.52;98.44;96091.09;114211;1202;30424;-84
2021/08/31 05:00:33;;;;;;;7.10;5.40;;;;;;;11.56;98.36;96089.21;114262;1201;27017;-84
2021/08/31 05:03:04;;;;;;;6.00;4.60;;;;;;;11.59;98.37;96089.83;114260;1200;27884;-84
2021/08/31 05:05:36;;;;;;;6.50;5.10;;;;;;;11.62;98.26;96085.05;114194;1201;26518;-84
2021/08/31 05:08:07;;;;;;;5.20;4.40;;;;;;;11.66;98.24;96087.35;114181;1201;46815;-86
2021/08/31 05:10:38;;;;;;;5.30;4.60;;;;;;;11.68;98.26;96085.24;114214;1202;26364;-86
2021/08/31 05:13:09;;;;;;;7.10;5.10;;;;;;;11.69;98.07;96084.65;114125;1202;27567;-85
2021/08/31 05:15:41;;;;;;;6.50;4.60;;;;;;;11.70;98.14;96086.02;114196;1201;29941;-86
2021/08/31 05:18:12;;;;;;;5.90;4.60;;;;;;;11.70;98.17;96086.33;114175;1201;28709;-86
2021/08/31 05:20:44;;;;;;;6.10;5.00;;;;;;;11.71;98.06;96079.08;114180;1201;27300;-85
2021/08/31 05:23:15;;;;;;;6.90;5.20;;;;;;;11.74;97.96;96074.14;114155;1201;30719;-85
2021/08/31 05:25:46;;;;;;;7.00;4.70;;;;;;;11.74;97.90;96071.89;114202;1208;25266;-85
2021/08/31 05:28:17;;;;;;;5.80;4.80;;;;;;;11.75;97.91;96076.40;114250;1201;32062;-86
2021/08/31 05:30:48;;;;;;;5.40;4.30;;;;;;;11.75;97.92;96067.84;114227;1201;27879;-85
2021/08/31 05:33:19;;;;;;;7.80;4.60;;;;;;;11.76;97.85;96072.81;114141;1202;30572;-84
2021/08/31 05:35:50;;;;;;;5.60;4.50;;;;;;;11.77;97.80;96073.69;114139;1197;29308;-85
2021/08/31 05:38:21;;;;;;;7.00;4.70;;;;;;;11.78;97.78;96065.95;114213;1201;26083;-84
2021/08/31 05:40:52;;;;;;;5.50;4.20;;;;;;;11.80;97.72;96066.90;114146;1203;27634;-87
2021/08/31 05:43:23;;;;;;;6.40;4.40;;;;;;;11.81;97.70;96065.07;114139;1200;27833;-86
2021/08/31 05:45:54;;;;;;;6.20;4.30;;;;;;;11.83;97.59;96066.27;114105;1201;29650;-84
2021/08/31 05:48:25;;;;;;;4.60;4.00;;;;;;;11.86;97.65;96070.23;114120;1203;32402;-85
2021/08/31 05:50:56;;;;;;;5.30;4.00;;;;;;;11.93;97.55;96072.36;114190;1201;27982;-85
2021/08/31 05:53:27;;;;;;;4.80;3.90;;;;;;;12.02;97.41;96069.79;114175;1202;29486;-85
2021/08/31 05:55:59;;;;;;;4.20;3.80;;;;;;;12.07;97.41;96073.64;114186;1204;26616;-85
2021/08/31 05:58:29;;;;;;;5.10;3.50;;;;;;;12.13;97.34;96077.13;114225;1200;28772;-86
2021/08/31 06:01:00;;;;;;;4.80;4.00;;;;;;;12.20;97.19;96072.02;114212;1204;27375;-85
2021/08/31 06:03:31;;;;;;;6.50;3.50;;;;;;;12.27;97.00;96071.61;114254;1201;26950;-85
2021/08/31 06:06:02;;;;;;;5.60;4.00;;;;;;;12.32;96.86;96071.14;114296;1201;28700;-84
2021/08/31 06:08:34;;;;;;;5.20;3.90;;;;;;;12.41;96.58;96070.67;114246;1202;27041;-85
2021/08/31 06:11:06;;;;;;;4.90;3.50;;;;;;;12.51;96.45;96065.33;114235;1200;29120;-85
2021/08/31 06:13:37;;;;;;;4.70;3.50;;;;;;;12.64;96.24;96067.41;114198;1201;29133;-84
2021/08/31 06:16:08;;;;;;;4.40;3.40;;;;;;;12.76;95.67;96071.09;114223;1201;25938;-85
2021/08/31 06:18:39;;;;;;;3.60;3.00;;;;;;;12.98;95.87;96066.52;114199;1200;27065;-84
2021/08/31 06:21:10;;;;;;;4.70;3.10;;;;;;;13.22;95.36;96062.30;114287;1200;28920;-85
2021/08/31 06:23:41;;;;;;;3.90;3.10;;;;;;;13.42;94.42;96056.70;114220;1200;27387;-86
2021/08/31 06:26:12;;;;;;;3.80;2.60;;;;;;;13.78;93.74;96056.67;114247;1201;25614;-85
2021/08/31 06:28:43;;;;;;;2.80;2.50;;;;;;;14.11;92.12;96055.30;114158;1203;29479;-86
2021/08/31 06:31:15;;;;;;;3.20;2.50;;;;;;;13.93;91.34;96061.17;114177;1206;29367;-85
2021/08/31 06:33:46;;;;;;;3.30;2.50;;;;;;;14.06;91.81;96061.20;114204;1201;29040;-85
2021/08/31 06:36:17;;;;;;;3.30;2.40;;;;;;;14.07;90.28;96058.29;114146;1207;31137;-85
2021/08/31 06:38:48;;;;;;;2.20;2.00;;;;;;;13.69;90.00;96061.67;114309;1201;27608;-85
2021/08/31 06:41:19;;;;;;;3.30;2.40;;;;;;;13.38;90.82;96064.20;114259;1202;26998;-84
2021/08/31 06:43:50;;;;;;;2.00;1.80;;;;;;;13.23;91.61;96071.48;114223;1203;38332;-84
2021/08/31 06:46:21;;;;;;;2.70;2.40;;;;;;;13.22;91.96;96081.14;114186;1202;28986;-85
2021/08/31 06:48:52;;;;;;;2.70;2.10;;;;;;;13.34;92.54;96079.66;114229;1201;28136;-85
2021/08/31 06:51:24;;;;;;;3.40;2.30;;;;;;;13.71;92.76;96080.20;114237;1200;32427;-84
2021/08/31 06:53:55;;;;;;;2.30;2.10;;;;;;;14.01;92.19;96078.27;114188;1197;27471;-84
2021/08/31 06:56:26;;;;;;;3.20;2.50;;;;;;;13.91;91.25;96083.45;114195;1203;31086;-85
2021/08/31 06:58:57;;;;;;;4.10;2.30;;;;;;;13.78;90.91;96086.58;114186;1201;29799;-84
2021/08/31 07:01:28;;;;;;;3.80;2.20;;;;;;;13.62;91.02;96088.14;114213;1204;28913;-85
2021/08/31 07:03:59;;;;;;;3.10;2.20;;;;;;;13.58;91.51;96094.74;114214;1200;29146;-85
2021/08/31 07:06:30;;;;;;;3.40;2.20;;;;;;;13.62;91.56;96090.98;114204;1201;29762;-84
2021/08/31 07:09:01;;;;;;;2.90;2.20;;;;;;;13.60;91.33;96097.31;114245;1201;28955;-85
2021/08/31 07:11:32;;;;;;;3.50;2.40;;;;;;;13.66;91.65;96094.48;114272;1207;26492;-85
2021/08/31 07:14:04;;;;;;;2.30;2.00;;;;;;;13.63;91.78;96100.14;114244;1200;28166;-85
2021/08/31 07:16:35;;;;;;;2.60;2.10;;;;;;;13.51;91.82;96103.40;114244;1201;34845;-85
2021/08/31 07:19:06;;;;;;;2.40;1.90;;;;;;;13.40;91.97;96097.83;114241;1202;28545;-84
2021/08/31 07:21:37;;;;;;;1.90;1.60;;;;;;;13.41;92.18;96098.95;114204;1200;31854;-85
2021/08/31 07:24:09;;;;;;;2.00;1.50;;;;;;;13.58;92.51;96101.83;114216;1200;29373;-85
2021/08/31 07:26:40;;;;;;;2.40;1.80;;;;;;;13.66;91.95;96102.20;114189;1201;28103;-84
2021/08/31 07:29:11;;;;;;;2.00;1.80;;;;;;;13.68;91.79;96104.17;114200;1201;32966;-86
2021/08/31 07:31:42;;;;;;;1.50;1.40;;;;;;;13.77;91.55;96098.10;114231;1200;30872;-84
2021/08/31 07:34:13;;;;;;;2.30;1.70;;;;;;;13.77;91.11;96100.81;114237;1200;28054;-84
2021/08/31 07:36:45;;;;;;;2.40;1.70;;;;;;;13.65;91.17;96104.82;114216;1207;31247;-85
2021/08/31 07:39:16;;;;;;;1.80;1.70;;;;;;;13.57;91.37;96099.41;114241;1201;31039;-85
2021/08/31 07:41:47;;;;;;;2.60;1.90;;;;;;;13.52;91.38;96096.00;114179;1201;33166;-86
2021/08/31 07:44:18;;;;;;;2.50;1.70;;;;;;;13.66;92.09;96098.30;114249;1200;31123;-85
2021/08/31 07:46:51;;;;;;;2.00;1.50;;;;;;;14.14;92.04;96095.84;114184;1201;28854;-85
2021/08/31 07:49:23;;;;;;;2.10;1.70;;;;;;;14.44;90.70;96099.72;114224;1201;27456;-84
2021/08/31 07:51:54;;;;;;;2.00;1.60;;;;;;;14.77;90.29;96098.40;114220;1201;27285;-85
2021/08/31 07:54:26;;;;;;;2.60;1.50;;;;;;;14.81;89.43;96101.16;114227;1207;30595;-85
2021/08/31 07:56:57;;;;;;;1.40;1.20;;;;;;;14.72;88.80;96106.02;114230;1201;27467;-84
2021/08/31 07:59:28;;;;;;;1.70;1.30;;;;;;;14.79;88.65;96105.33;114219;1201;35392;-85
2021/08/31 08:02:00;;;;;;;1.40;1.20;;;;;;;14.88;88.68;96107.13;114260;1207;32899;-86
2021/08/31 08:04:32;;;;;;;1.40;1.30;;;;;;;14.90;89.24;96105.77;114303;1200;28333;-85
2021/08/31 08:07:03;;;;;;;1.40;1.30;;;;;;;14.91;89.42;96116.27;114241;1201;25771;-85
2021/08/31 08:09:35;;;;;;;2.50;1.70;;;;;;;14.80;89.30;96114.81;114294;1202;27368;-84
2021/08/31 08:12:07;;;;;;;1.90;1.60;;;;;;;14.63;89.26;96115.98;114156;1207;27997;-85
2021/08/31 08:14:38;;;;;;;1.40;1.30;;;;;;;14.41;89.02;96113.85;114146;1206;31529;-85
2021/08/31 08:17:10;;;;;;;1.30;1.20;;;;;;;14.23;89.40;96118.39;114119;1203;52820;-84
2021/08/31 08:19:41;;;;;;;1.40;1.30;;;;;;;14.08;89.87;96116.46;114208;1201;26002;-85
2021/08/31 08:22:13;;;;;;;2.80;1.40;;;;;;;14.01;90.53;96123.41;114258;1202;28370;-87
2021/08/31 08:24:44;;;;;;;2.00;1.50;;;;;;;13.94;90.54;96125.58;114322;1203;32508;-85
2021/08/31 08:27:15;;;;;;;1.80;1.10;;;;;;;13.80;90.39;96129.40;114239;1204;30202;-85
2021/08/31 08:29:46;;;;;;;1.70;1.00;;;;;;;13.64;90.57;96138.85;114210;1202;29947;-86
2021/08/31 08:32:18;;;;;;;2.20;1.30;;;;;;;13.53;90.89;96136.34;114203;1204;26863;-86
2021/08/31 08:34:49;;;;;;;1.30;1.20;;;;;;;13.46;91.44;96134.05;114246;1201;35836;-85
2021/08/31 08:37:21;;;;;;;1.50;1.20;;;;;;;13.41;91.89;96138.27;114259;1201;30332;-84
2021/08/31 08:39:52;;;;;;;1.70;1.30;;;;;;;13.35;92.37;96138.19;114274;1205;29206;-85
2021/08/31 08:42:24;;;;;;;2.10;1.40;;;;;;;13.32;92.68;96141.83;114192;1201;27322;-85
2021/08/31 08:44:55;;;;;;;1.80;1.20;;;;;;;13.32;93.03;96140.04;114207;1203;27600;-85
2021/08/31 08:47:27;;;;;;;2.00;1.30;;;;;;;13.29;93.07;96134.73;114138;1204;36492;-84
2021/08/31 08:50:00;;;;;;;1.30;1.10;;;;;;;13.25;93.22;96132.35;114261;1204;31981;-86
2021/08/31 08:52:34;;;;;;;1.70;1.30;;;;;;;13.21;93.42;96133.72;114296;1207;28901;-85
2021/08/31 08:55:10;;;;;;;1.70;1.10;;;;;;;13.16;93.81;96135.48;114301;1205;27003;-85
2021/08/31 08:57:43;;;;;;;1.30;1.20;;;;;;;13.13;94.25;96134.98;114274;1201;28409;-85
2021/08/31 09:00:18;;;;;;;1.60;1.30;;;;;;;13.07;94.47;96140.42;114321;1201;28823;-85
2021/08/31 09:02:50;;;;;;;1.00;0.90;;;;;;;13.01;94.45;96136.13;114237;1202;27248;-85
2021/08/31 09:05:34;;;;;;;1.30;1.10;;;;;;;12.93;94.75;96139.87;114284;1200;27245;-85
2021/08/31 09:08:10;;;;;;;1.50;1.10;;;;;;;12.89;95.12;96137.75;114219;1201;30114;-84
2021/08/31 09:10:45;;;;;;;1.60;0.90;;;;;;;12.84;95.32;96136.52;114250;1197;27465;-85
2021/08/31 09:13:22;;;;;;;1.40;1.10;;;;;;;12.79;95.61;96143.66;114241;1201;28706;-85
2021/08/31 09:15:54;;;;;;;1.60;1.40;;;;;;;12.76;95.95;96136.57;114255;1201;36472;-84
2021/08/31 09:18:27;;;;;;;1.30;1.10;;;;;;;12.75;96.13;96129.59;114087;1201;27899;-85
2021/08/31 09:21:04;;;;;;;3.10;1.50;;;;;;;12.72;96.34;96120.13;114213;1205;31479;-85
2021/08/31 09:23:37;;;;;;;2.50;1.70;;;;;;;12.72;96.53;96114.24;114245;1207;31247;-86
2021/08/31 09:26:13;;;;;;;2.30;1.60;;;;;;;12.70;96.69;96110.30;114228;1207;38386;-86
2021/08/31 09:28:46;;;;;;;1.70;1.30;;;;;;;12.72;96.73;96112.90;114271;1200;26987;-85
2021/08/31 09:31:20;;;;;;;1.40;1.30;;;;;;;12.75;96.95;96110.63;114287;1205;31692;-87
2021/08/31 09:33:54;;;;;;;3.50;1.40;;;;;;;12.79;97.07;96106.02;114171;1206;30214;-84
2021/08/31 09:36:26;;;;;;;1.20;1.10;;;;;;;12.83;97.30;96098.75;114195;1206;29073;-85
2021/08/31 09:39:01;;;;;;;1.20;1.10;;;;;;;12.87;97.16;96099.91;114171;1206;30259;-86
2021/08/31 09:41:36;;;;;;;1.00;0.90;;;;;;;12.95;97.50;96104.39;114294;1195;28504;-85
2021/08/31 09:44:13;;;;;;;1.90;1.20;;;;;;;13.03;97.62;96100.14;114252;1200;28016;-84
2021/08/31 09:46:54;;;;;;;2.30;1.10;;;;;;;13.14;97.57;96108.23;114295;1207;28173;-84
2021/08/31 09:49:29;;;;;;;1.40;1.00;;;;;;;13.25;97.18;96113.98;114283;1208;26456;-85
2021/08/31 09:52:12;;;;;;;1.90;1.00;;;;;;;13.35;97.09;96110.08;114254;1200;38056;-85
2021/08/31 09:54:46;;;;;;;0.80;0.70;;;;;;;13.43;97.34;96115.78;114227;1208;28461;-85
2021/08/31 09:57:30;;;;;;;1.10;1.00;;;;;;;13.46;97.07;96112.50;114119;1206;29275;-84
2021/08/31 10:00:05;;;;;;;1.10;1.00;;;;;;;13.49;96.72;96115.91;114301;1203;25269;-84
2021/08/31 10:02:37;;;;;;;1.60;1.40;;;;;;;13.49;96.82;96115.83;114244;1202;71240;-84
2021/08/31 10:05:10;;;;;;;2.00;1.30;;;;;;;13.52;97.17;96113.24;114252;1208;28606;-84
2021/08/31 10:07:45;;;;;;;1.10;1.00;;;;;;;13.69;97.45;96112.98;114233;1204;28368;-84
2021/08/31 10:10:17;;;;;;;1.60;1.10;;;;;;;14.12;97.80;96120.73;114262;1207;31668;-84
2021/08/31 10:12:51;;;;;;;1.40;0.90;;;;;;;14.49;97.18;96121.86;114255;1202;28412;-85
2021/08/31 10:15:23;;;;;;;1.00;0.80;;;;;;;14.72;96.59;96124.39;114232;1203;28848;-85
2021/08/31 10:17:54;;;;;;;1.40;1.00;;;;;;;14.75;95.30;96123.53;114247;1207;27959;-85
2021/08/31 10:20:28;;;;;;;0.80;0.70;;;;;;;14.70;95.02;96122.39;114269;1201;29073;-85
2021/08/31 10:23:02;;;;;;;1.60;1.10;;;;;;;14.57;94.45;96124.06;114238;1201;28749;-84
2021/08/31 10:25:33;;;;;;;1.40;1.00;;;;;;;14.51;94.44;96123.33;114298;1206;27001;-84
2021/08/31 10:28:23;;;;;;;0.90;0.70;;;;;;;14.44;94.61;96123.56;114326;1208;29712;-85
2021/08/31 10:30:56;;;;;;;1.00;0.60;;;;;;;14.37;94.45;96118.77;114309;1202;28149;-85
2021/08/31 10:33:35;;;;;;;0.50;0.50;;;;;;;14.28;94.38;96117.20;114234;1207;28510;-85
2021/08/31 10:36:09;;;;;;;1.80;0.50;;;;;;;14.18;94.13;96116.88;114260;1202;29829;-84
2021/08/31 10:38:55;;;;;;;1.80;0.80;;;;;;;14.09;94.53;96117.70;114291;1201;27298;-85
2021/08/31 10:41:47;;;;;;;1.40;0.70;;;;;;;14.04;94.09;96114.58;114091;1202;31274;-85
2021/08/31 10:44:40;;;;;;;0.70;0.40;;;;;;;14.03;94.50;96113.02;114175;1201;27978;-86
2021/08/31 10:47:31;;;;;;;0.90;0.50;;;;;;;14.10;95.09;96113.49;114235;1194;29738;-86
2021/08/31 10:50:17;;;;;;;1.00;0.50;;;;;;;14.19;94.96;96115.28;114339;1206;28870;-84
2021/08/31 10:52:52;;;;;;;0.70;0.40;;;;;;;14.32;95.21;96115.50;114270;1201;31092;-85
2021/08/31 10:55:46;;;;;;;1.00;0.50;;;;;;;14.44;94.63;96102.03;114251;1207;27552;-87
2021/08/31 10:58:47;;;;;;;0.70;0.30;;;;;;;14.44;94.03;96096.70;114107;1200;54163;-84
2021/08/31 11:01:20;;;;;;;1.00;0.40;;;;;;;14.46;93.70;96096.20;114249;1201;27413;-84
2021/08/31 11:03:53;;;;;;;1.40;0.40;;;;;;;14.53;93.97;96102.55;114187;1208;24988;-85
2021/08/31 11:06:36;;;;;;;0.80;0.50;;;;;;;14.64;93.83;96095.46;114282;1201;29218;-85
2021/08/31 11:09:23;;;;;;;0.30;0.30;;;;;;;14.81;93.54;96092.89;114223;1202;26541;-84
2021/08/31 11:12:10;;;;;;;3.80;0.50;;;;;;;14.91;92.88;96091.80;114167;1201;28535;-85
2021/08/31 11:14:45;;;;;;;0.60;0.40;;;;;;;14.90;92.48;96106.61;114229;1201;28217;-84
2021/08/31 11:20:37;;;;;;;0.70;0.30;;;;;;;14.75;92.09;96119.80;112331;1227;574359;-87
2021/08/31 11:23:11;;;;;;;0.60;0.30;;;;;;;14.75;92.17;96111.77;113549;1209;28194;-84
2021/08/31 11:25:44;;;;;;;0.40;0.30;;;;;;;14.80;91.80;96115.83;113682;1213;25858;-86
2021/08/31 11:28:17;;;;;;;0.50;0.40;;;;;;;14.85;92.44;96114.95;113740;1206;27365;-85
2021/08/31 11:30:54;;;;;;;1.60;0.30;;;;;;;14.91;91.99;96116.95;113768;1206;26703;-85
2021/08/31 11:33:29;;;;;;;2.20;0.70;;;;;;;14.92;91.53;96115.59;113879;1205;28234;-85
2021/08/31 11:36:03;;;;;;;1.10;0.40;;;;;;;14.88;91.61;96111.65;113909;1201;29315;-86
2021/08/31 11:38:37;;;;;;;0.60;0.40;;;;;;;14.91;92.12;96115.29;114014;1205;23861;-85
2021/08/31 11:41:19;;;;;;;0.60;0.60;;;;;;;15.03;92.10;96108.54;113921;1204;27402;-85
2021/08/31 11:43:55;;;;;;;1.50;0.50;;;;;;;15.18;91.80;96108.93;113831;1205;28654;-85
2021/08/31 11:46:28;;;;;;;0.60;0.60;;;;;;;15.24;91.57;96111.02;114073;1205;27181;-85
2021/08/31 11:49:11;;;;;;;0.60;0.40;;;;;;;15.29;91.35;96120.42;114129;1204;27172;-85
2021/08/31 11:51:44;;;;;;;1.00;0.60;;;;;;;15.11;90.49;96122.45;114128;1202;28117;-85
2021/08/31 11:54:16;;;;;;;0.50;0.50;;;;;;;14.92;90.67;96120.50;114166;1201;27719;-86